Time;durP1;ratioP1;P1;durP2;ratioP2;P2;SDS_P1;SDS_P2;PMS_P1;PMS_P2;Temp;Humidity;BMP_temperature;BMP_pressure;BME280_temperature;BME280_humidity;BME280_pressure;Samples;Min_cycle;Max_cycle;Signal;HPM_P1;HPM_P2
2021/12/29 00:01:04;;;;;;;;;;;;;;;;;;5063165;28;20357;-79
2021/12/29 00:03:30;;;;;;;;;;;;;;;;;;5057795;28;19916;-79
2021/12/29 00:05:55;;;;;;;;;;;;;;;;;;5053692;28;19960;-78
2021/12/29 00:08:23;;;;;;;;;;;;;;;;;;5052498;28;19978;-78
2021/12/29 00:10:54;;;;;;;;;;;;;;;;;;5051517;28;19912;-78
2021/12/29 00:13:20;;;;;;;;;;;;;;;;;;5051600;28;19921;-79
2021/12/29 00:15:45;;;;;;;;;;;;;;;;;;5051257;28;19916;-78
2021/12/29 00:18:15;;;;;;;;;;;;;;;;;;5051137;28;19966;-79
2021/12/29 00:20:41;;;;;;;;;;;;;;;;;;5049146;28;19920;-79
2021/12/29 00:23:07;;;;;;;;;;;;;;;;;;5052962;28;19935;-78
2021/12/29 00:25:33;;;;;;;;;;;;;;;;;;5051191;28;19920;-79
2021/12/29 00:28:01;;;;;;;;;;;;;;;;;;5048484;28;19916;-78
2021/12/29 00:30:27;;;;;;;;;;;;;;;;;;5049931;28;19920;-78
2021/12/29 00:32:53;;;;;;;;;;;;;;;;;;5049554;28;19952;-78
2021/12/29 00:35:21;;;;;;;;;;;;;;;;;;5051807;28;20443;-78
2021/12/29 00:37:46;;;;;;;;;;;;;;;;;;5048530;28;20276;-78
2021/12/29 00:40:12;;;;;;;;;;;;;;;;;;5047066;28;19947;-77
2021/12/29 00:42:38;;;;;;;;;;;;;;;;;;5050867;28;19916;-78
2021/12/29 00:45:06;;;;;;;;;;;;;;;;;;5048974;28;19944;-78
2021/12/29 00:47:34;;;;;;;;;;;;;;;;;;5049131;28;19924;-78
2021/12/29 00:50:00;;;;;;;;;;;;;;;;;;5051125;28;19920;-77
2021/12/29 00:52:25;;;;;;;;;;;;;;;;;;5071136;28;19919;-79
2021/12/29 00:54:51;;;;;;;;;;;;;;;;;;5051010;28;20023;-78
2021/12/29 00:57:16;;;;;;;;;;;;;;;;;;5054741;28;20373;-78
2021/12/29 00:59:41;;;;;;;;;;;;;;;;;;5054291;28;20024;-79
2021/12/29 01:02:07;;;;;;;;;;;;;;;;;;5050761;28;19966;-80
2021/12/29 01:04:33;;;;;;;;;;;;;;;;;;5049906;28;19958;-78
2021/12/29 01:06:58;;;;;;;;;;;;;;;;;;5050335;28;20436;-78
2021/12/29 01:09:26;;;;;;;;;;;;;;;;;;5052391;28;20364;-78
2021/12/29 01:11:55;;;;;;;;;;;;;;;;;;5046799;28;19913;-77
2021/12/29 01:14:25;;;;;;;;;;;;;;;;;;5048520;28;19974;-79
2021/12/29 01:16:50;;;;;;;;;;;;;;;;;;5055679;28;19962;-77
2021/12/29 01:19:21;;;;;;;;;;;;;;;;;;5047416;28;19917;-79
2021/12/29 01:21:50;;;;;;;;;;;;;;;;;;5073928;28;19920;-79
2021/12/29 01:24:16;;;;;;;;;;;;;;;;;;5079243;28;20424;-79
2021/12/29 01:26:43;;;;;;;;;;;;;;;;;;5056740;28;20376;-78
2021/12/29 01:29:09;;;;;;;;;;;;;;;;;;5073047;28;20066;-79
2021/12/29 01:31:36;;;;;;;;;;;;;;;;;;5049912;28;20011;-78
2021/12/29 01:34:05;;;;;;;;;;;;;;;;;;5051743;28;19916;-80
2021/12/29 01:36:31;;;;;;;;;;;;;;;;;;5073967;28;19924;-80
2021/12/29 01:38:57;;;;;;;;;;;;;;;;;;5054964;28;19976;-79
2021/12/29 01:41:22;;;;;;;;;;;;;;;;;;5057373;28;20395;-77
2021/12/29 01:43:47;;;;;;;;;;;;;;;;;;5044771;28;19939;-77
2021/12/29 01:46:15;;;;;;;;;;;;;;;;;;5044816;28;20301;-78
2021/12/29 01:48:40;;;;;;;;;;;;;;;;;;5049146;28;19920;-77
2021/12/29 01:51:06;;;;;;;;;;;;;;;;;;5049522;28;19913;-78
2021/12/29 01:53:33;;;;;;;;;;;;;;;;;;5047093;28;19944;-78
2021/12/29 01:55:58;;;;;;;;;;;;;;;;;;5049135;28;19917;-78
2021/12/29 01:58:26;;;;;;;;;;;;;;;;;;5049828;28;19916;-77
2021/12/29 02:00:53;;;;;;;;;;;;;;;;;;5046256;28;19976;-77
2021/12/29 02:03:21;;;;;;;;;;;;;;;;;;5046341;28;19913;-79
2021/12/29 02:05:48;;;;;;;;;;;;;;;;;;5067289;28;19966;-77
2021/12/29 02:08:21;;;;;;;;;;;;;;;;;;5046560;28;19924;-78
2021/12/29 02:10:47;;;;;;;;;;;;;;;;;;5048501;28;19974;-76
2021/12/29 02:13:15;;;;;;;;;;;;;;;;;;5079312;28;19992;-79
2021/12/29 02:15:43;;;;;;;;;;;;;;;;;;5047417;28;20292;-78
2021/12/29 02:18:16;;;;;;;;;;;;;;;;;;5043025;28;19919;-78
2021/12/29 02:20:46;;;;;;;;;;;;;;;;;;5044312;28;19920;-78
2021/12/29 02:23:20;;;;;;;;;;;;;;;;;;5051256;28;20276;-78
2021/12/29 02:25:53;;;;;;;;;;;;;;;;;;5045678;28;19912;-77
2021/12/29 02:28:38;;;;;;;;;;;;;;;;;;5048820;28;19917;-78
2021/12/29 02:31:03;;;;;;;;;;;;;;;;;;5048263;28;19921;-78
2021/12/29 02:33:30;;;;;;;;;;;;;;;;;;5047260;28;19919;-78
2021/12/29 02:35:59;;;;;;;;;;;;;;;;;;5044894;28;19920;-78
2021/12/29 02:38:24;;;;;;;;;;;;;;;;;;5044060;28;20318;-79
2021/12/29 02:40:53;;;;;;;;;;;;;;;;;;5047606;28;19917;-79
2021/12/29 02:43:21;;;;;;;;;;;;;;;;;;5048708;28;20384;-78
2021/12/29 02:45:50;;;;;;;;;;;;;;;;;;5046334;28;20493;-78
2021/12/29 02:48:16;;;;;;;;;;;;;;;;;;5051767;28;19951;-78
2021/12/29 02:50:42;;;;;;;;;;;;;;;;;;5050138;28;20062;-78
2021/12/29 02:53:09;;;;;;;;;;;;;;;;;;5052017;28;19944;-78
2021/12/29 02:55:35;;;;;;;;;;;;;;;;;;5049369;28;19936;-79
2021/12/29 02:58:00;;;;;;;;;;;;;;;;;;5054511;28;20324;-79
2021/12/29 03:00:25;;;;;;;;;;;;;;;;;;5048874;28;20368;-79
2021/12/29 03:02:51;;;;;;;;;;;;;;;;;;5049063;28;19924;-80
2021/12/29 03:05:18;;;;;;;;;;;;;;;;;;5053445;28;19986;-78
2021/12/29 03:07:43;;;;;;;;;;;;;;;;;;5047927;28;19916;-78
2021/12/29 03:10:09;;;;;;;;;;;;;;;;;;5048716;28;20542;-79
2021/12/29 03:12:34;;;;;;;;;;;;;;;;;;5051936;28;19966;-77
2021/12/29 03:14:59;;;;;;;;;;;;;;;;;;5048410;28;20430;-79
2021/12/29 03:17:25;;;;;;;;;;;;;;;;;;5048657;28;19912;-79
2021/12/29 03:19:53;;;;;;;;;;;;;;;;;;5051538;28;20355;-80
2021/12/29 03:22:18;;;;;;;;;;;;;;;;;;5047867;28;19956;-78
2021/12/29 03:24:43;;;;;;;;;;;;;;;;;;5049090;28;19920;-78
2021/12/29 03:27:09;;;;;;;;;;;;;;;;;;5048199;28;19956;-78
2021/12/29 03:29:34;;;;;;;;;;;;;;;;;;5052103;28;20364;-79
2021/12/29 03:32:06;;;;;;;;;;;;;;;;;;5054773;28;19933;-79
2021/12/29 03:34:33;;;;;;;;;;;;;;;;;;5050999;28;19935;-77
2021/12/29 03:36:59;;;;;;;;;;;;;;;;;;5052560;28;19944;-80
2021/12/29 03:39:26;;;;;;;;;;;;;;;;;;5056011;28;19952;-78
2021/12/29 03:41:51;;;;;;;;;;;;;;;;;;5049506;28;19995;-78
2021/12/29 03:44:17;;;;;;;;;;;;;;;;;;5054915;28;20391;-78
2021/12/29 03:46:42;;;;;;;;;;;;;;;;;;5056384;28;19923;-78
2021/12/29 03:49:08;;;;;;;;;;;;;;;;;;5052326;28;19912;-77
2021/12/29 03:51:33;;;;;;;;;;;;;;;;;;5051543;28;19919;-78
2021/12/29 03:54:04;;;;;;;;;;;;;;;;;;5054915;28;20265;-79
2021/12/29 03:56:32;;;;;;;;;;;;;;;;;;5056255;28;19908;-78
2021/12/29 03:58:57;;;;;;;;;;;;;;;;;;5063849;28;19928;-78
2021/12/29 04:01:25;;;;;;;;;;;;;;;;;;5052744;28;20069;-78
2021/12/29 04:03:51;;;;;;;;;;;;;;;;;;5056165;28;19982;-78
2021/12/29 04:06:18;;;;;;;;;;;;;;;;;;5050897;28;19920;-77
2021/12/29 04:08:43;;;;;;;;;;;;;;;;;;5048269;28;19935;-78
2021/12/29 04:11:11;;;;;;;;;;;;;;;;;;5062338;28;19912;-78
2021/12/29 04:13:36;;;;;;;;;;;;;;;;;;5052138;28;19970;-78
2021/12/29 04:16:05;;;;;;;;;;;;;;;;;;5049354;28;19921;-78
2021/12/29 04:18:31;;;;;;;;;;;;;;;;;;5077807;28;20295;-78
2021/12/29 04:21:03;;;;;;;;;;;;;;;;;;5054199;28;19913;-78
2021/12/29 04:23:37;;;;;;;;;;;;;;;;;;5052819;28;19916;-79
2021/12/29 04:26:04;;;;;;;;;;;;;;;;;;5053069;28;19967;-78
2021/12/29 04:28:30;;;;;;;;;;;;;;;;;;5050806;28;19919;-77
2021/12/29 04:31:01;;;;;;;;;;;;;;;;;;5050687;28;20030;-78
2021/12/29 04:33:27;;;;;;;;;;;;;;;;;;5050786;28;19935;-78
2021/12/29 04:35:52;;;;;;;;;;;;;;;;;;5079184;28;20435;-77
2021/12/29 04:38:18;;;;;;;;;;;;;;;;;;5054250;28;19919;-79
2021/12/29 04:40:43;;;;;;;;;;;;;;;;;;5054912;28;19951;-78
2021/12/29 04:43:09;;;;;;;;;;;;;;;;;;5058352;28;19921;-78
2021/12/29 04:45:38;;;;;;;;;;;;;;;;;;5053796;28;19939;-77
2021/12/29 04:48:10;;;;;;;;;;;;;;;;;;5052599;28;19917;-79
2021/12/29 04:50:37;;;;;;;;;;;;;;;;;;5053195;28;19920;-78
2021/12/29 04:53:04;;;;;;;;;;;;;;;;;;5057225;28;19913;-79
2021/12/29 04:55:29;;;;;;;;;;;;;;;;;;5054775;28;19980;-78
2021/12/29 04:57:55;;;;;;;;;;;;;;;;;;5055646;28;19952;-78
2021/12/29 05:00:23;;;;;;;;;;;;;;;;;;5080168;28;19960;-78
2021/12/29 05:02:49;;;;;;;;;;;;;;;;;;5051262;28;20428;-78
2021/12/29 05:05:40;;;;;;;;;;;;;;;;;;;;;
2021/12/29 05:10:33;;;;;;;;;;;;;;;;;;5062136;28;19939;-78
2021/12/29 05:12:59;;;;;;;;;;;;;;;;;;5057627;28;20321;-78
2021/12/29 05:15:24;;;;;;;;;;;;;;;;;;5051420;28;19920;-78
2021/12/29 05:17:49;;;;;;;;;;;;;;;;;;5055381;28;19913;-79
2021/12/29 05:20:15;;;;;;;;;;;;;;;;;;5052037;28;19913;-78
2021/12/29 05:22:43;;;;;;;;;;;;;;;;;;5050785;28;19927;-78
2021/12/29 05:25:08;;;;;;;;;;;;;;;;;;5055129;28;19912;-79
2021/12/29 05:27:33;;;;;;;;;;;;;;;;;;5059576;28;19988;-78
2021/12/29 05:30:02;;;;;;;;;;;;;;;;;;5047930;28;19952;-78
2021/12/29 05:32:30;;;;;;;;;;;;;;;;;;5051116;28;19943;-77
2021/12/29 05:34:55;;;;;;;;;;;;;;;;;;5053131;28;20358;-78
2021/12/29 05:37:20;;;;;;;;;;;;;;;;;;5050060;28;19921;-79
2021/12/29 05:39:46;;;;;;;;;;;;;;;;;;5049830;28;19996;-78
2021/12/29 05:42:11;;;;;;;;;;;;;;;;;;5051183;28;19956;-77
2021/12/29 05:44:36;;;;;;;;;;;;;;;;;;5048135;28;20295;-78
2021/12/29 05:47:02;;;;;;;;;;;;;;;;;;5048567;28;19927;-77
2021/12/29 05:49:27;;;;;;;;;;;;;;;;;;5052844;28;19920;-78
2021/12/29 05:51:52;;;;;;;;;;;;;;;;;;5048530;28;20300;-78
2021/12/29 05:54:20;;;;;;;;;;;;;;;;;;5046647;28;20308;-78
2021/12/29 05:56:45;;;;;;;;;;;;;;;;;;5071081;28;20373;-78
2021/12/29 05:59:11;;;;;;;;;;;;;;;;;;5050026;28;19919;-77
2021/12/29 06:01:36;;;;;;;;;;;;;;;;;;5049075;28;19939;-79
2021/12/29 06:04:02;;;;;;;;;;;;;;;;;;5050128;28;19970;-79
2021/12/29 06:06:27;;;;;;;;;;;;;;;;;;5053593;28;20383;-79
2021/12/29 06:08:52;;;;;;;;;;;;;;;;;;5048500;28;20403;-78
2021/12/29 06:11:20;;;;;;;;;;;;;;;;;;5050369;28;20395;-78
2021/12/29 06:13:48;;;;;;;;;;;;;;;;;;5048509;28;19912;-78
2021/12/29 06:16:13;;;;;;;;;;;;;;;;;;5049510;28;20368;-76
2021/12/29 06:18:38;;;;;;;;;;;;;;;;;;5050070;28;19975;-78
2021/12/29 06:21:04;;;;;;;;;;;;;;;;;;5050153;28;20430;-79
2021/12/29 06:23:29;;;;;;;;;;;;;;;;;;5052778;28;19916;-79
2021/12/29 06:25:54;;;;;;;;;;;;;;;;;;5043111;28;19913;-76
2021/12/29 06:28:20;;;;;;;;;;;;;;;;;;5046562;28;19921;-76
2021/12/29 06:30:45;;;;;;;;;;;;;;;;;;5050708;28;19913;-76
2021/12/29 06:33:10;;;;;;;;;;;;;;;;;;5047012;28;19913;-79
2021/12/29 06:35:36;;;;;;;;;;;;;;;;;;5046727;28;19920;-77
2021/12/29 06:38:01;;;;;;;;;;;;;;;;;;5052543;28;20015;-77
2021/12/29 06:40:27;;;;;;;;;;;;;;;;;;5048007;28;20308;-79
2021/12/29 06:42:52;;;;;;;;;;;;;;;;;;5052742;28;19962;-79
2021/12/29 06:45:17;;;;;;;;;;;;;;;;;;5050108;28;19909;-77
2021/12/29 06:47:42;;;;;;;;;;;;;;;;;;5045844;28;19972;-78
2021/12/29 06:50:08;;;;;;;;;;;;;;;;;;5047673;28;19963;-78
2021/12/29 06:52:34;;;;;;;;;;;;;;;;;;5050000;28;19927;-80
2021/12/29 06:54:59;;;;;;;;;;;;;;;;;;5049015;28;19917;-78
2021/12/29 06:57:27;;;;;;;;;;;;;;;;;;5046722;28;19922;-79
2021/12/29 06:59:55;;;;;;;;;;;;;;;;;;5045223;28;20026;-80
2021/12/29 07:02:20;;;;;;;;;;;;;;;;;;5060143;28;19909;-80
2021/12/29 07:04:45;;;;;;;;;;;;;;;;;;5055238;28;19943;-77
2021/12/29 07:07:11;;;;;;;;;;;;;;;;;;5046076;28;19948;-77
2021/12/29 07:09:36;;;;;;;;;;;;;;;;;;5051201;28;19913;-78
2021/12/29 07:12:02;;;;;;;;;;;;;;;;;;5049346;28;19920;-79
2021/12/29 07:14:27;;;;;;;;;;;;;;;;;;5046991;28;19919;-77
2021/12/29 07:16:53;;;;;;;;;;;;;;;;;;5050265;28;19917;-79
2021/12/29 07:19:19;;;;;;;;;;;;;;;;;;5069806;28;20008;-79
2021/12/29 07:21:44;;;;;;;;;;;;;;;;;;5070862;28;19956;-79
2021/12/29 07:24:10;;;;;;;;;;;;;;;;;;5047905;28;19917;-78
2021/12/29 07:26:35;;;;;;;;;;;;;;;;;;5048477;28;19923;-78
2021/12/29 07:29:01;;;;;;;;;;;;;;;;;;5049216;28;20010;-77
2021/12/29 07:31:27;;;;;;;;;;;;;;;;;;5047842;28;19913;-78
2021/12/29 07:33:55;;;;;;;;;;;;;;;;;;5054842;28;20698;-78
2021/12/29 07:36:21;;;;;;;;;;;;;;;;;;5075513;28;19932;-78
2021/12/29 07:38:47;;;;;;;;;;;;;;;;;;5045719;28;19930;-80
2021/12/29 07:41:13;;;;;;;;;;;;;;;;;;5048745;28;19913;-78
2021/12/29 07:43:41;;;;;;;;;;;;;;;;;;5072203;28;19912;-78
2021/12/29 07:46:06;;;;;;;;;;;;;;;;;;5045365;28;19952;-78
2021/12/29 07:48:32;;;;;;;;;;;;;;;;;;5067395;28;19962;-78
2021/12/29 07:50:59;;;;;;;;;;;;;;;;;;5051723;28;19931;-77
2021/12/29 07:53:24;;;;;;;;;;;;;;;;;;5048974;28;19912;-78
2021/12/29 07:55:49;;;;;;;;;;;;;;;;;;5069947;28;19942;-77
2021/12/29 07:58:17;;;;;;;;;;;;;;;;;;5054403;28;20299;-78
2021/12/29 08:00:43;;;;;;;;;;;;;;;;;;5047062;28;19974;-78
2021/12/29 08:03:12;;;;;;;;;;;;;;;;;;5046097;28;19917;-77
2021/12/29 08:05:38;;;;;;;;;;;;;;;;;;5047386;28;19958;-78
2021/12/29 08:08:05;;;;;;;;;;;;;;;;;;5046445;28;19921;-77
2021/12/29 08:10:31;;;;;;;;;;;;;;;;;;5043449;28;19974;-79
2021/12/29 08:12:56;;;;;;;;;;;;;;;;;;5047538;28;20403;-80
2021/12/29 08:15:22;;;;;;;;;;;;;;;;;;5049798;28;20248;-78
2021/12/29 08:17:47;;;;;;;;;;;;;;;;;;5049464;28;19974;-77
2021/12/29 08:20:12;;;;;;;;;;;;;;;;;;5047027;28;20391;-77
2021/12/29 08:22:40;;;;;;;;;;;;;;;;;;5051964;28;20277;-79
2021/12/29 08:25:06;;;;;;;;;;;;;;;;;;5060917;28;19916;-79
2021/12/29 08:27:33;;;;;;;;;;;;;;;;;;5054411;28;20307;-79
2021/12/29 08:29:58;;;;;;;;;;;;;;;;;;5047457;28;19928;-79
2021/12/29 08:32:24;;;;;;;;;;;;;;;;;;5049384;28;19921;-77
2021/12/29 08:34:51;;;;;;;;;;;;;;;;;;5051612;28;19974;-78
2021/12/29 08:37:17;;;;;;;;;;;;;;;;;;5076035;28;19912;-79
2021/12/29 08:39:42;;;;;;;;;;;;;;;;;;5054385;28;20360;-78
2021/12/29 08:42:08;;;;;;;;;;;;;;;;;;5056072;28;19917;-82
2021/12/29 08:44:33;;;;;;;;;;;;;;;;;;5048307;28;19924;-82
2021/12/29 08:46:58;;;;;;;;;;;;;;;;;;5050014;28;19917;-81
2021/12/29 08:49:24;;;;;;;;;;;;;;;;;;5054372;28;19935;-81
2021/12/29 08:51:49;;;;;;;;;;;;;;;;;;5048061;28;20472;-80
2021/12/29 08:54:14;;;;;;;;;;;;;;;;;;5075721;28;19917;-80
2021/12/29 08:56:42;;;;;;;;;;;;;;;;;;5055503;28;20209;-80
2021/12/29 08:59:08;;;;;;;;;;;;;;;;;;5050298;28;20011;-81
2021/12/29 09:01:35;;;;;;;;;;;;;;;;;;5046364;28;20683;-79
2021/12/29 09:04:01;;;;;;;;;;;;;;;;;;5056628;28;20146;-80
2021/12/29 09:06:26;;;;;;;;;;;;;;;;;;5057173;28;19923;-80
2021/12/29 09:08:54;;;;;;;;;;;;;;;;;;5049798;28;20371;-80
2021/12/29 09:11:19;;;;;;;;;;;;;;;;;;5055270;28;20007;-80
2021/12/29 09:13:44;;;;;;;;;;;;;;;;;;5048155;28;20167;-79
2021/12/29 09:16:12;;;;;;;;;;;;;;;;;;5047581;28;20417;-78
2021/12/29 09:18:38;;;;;;;;;;;;;;;;;;5051609;28;19916;-78
2021/12/29 09:21:12;;;;;;;;;;;;;;;;;;5069969;28;20295;-79
2021/12/29 09:23:37;;;;;;;;;;;;;;;;;;5071327;28;19917;-79
2021/12/29 09:26:04;;;;;;;;;;;;;;;;;;5048308;28;19955;-81
2021/12/29 09:28:29;;;;;;;;;;;;;;;;;;5050086;28;19917;-80
2021/12/29 09:30:57;;;;;;;;;;;;;;;;;;5051743;28;19920;-81
2021/12/29 09:33:22;;;;;;;;;;;;;;;;;;5048205;28;20303;-79
2021/12/29 09:35:49;;;;;;;;;;;;;;;;;;5071705;28;19924;-79
2021/12/29 09:38:15;;;;;;;;;;;;;;;;;;5051291;28;19912;-79
2021/12/29 09:40:41;;;;;;;;;;;;;;;;;;5045639;28;19924;-79
2021/12/29 09:43:07;;;;;;;;;;;;;;;;;;5047993;28;19916;-80
2021/12/29 09:45:33;;;;;;;;;;;;;;;;;;5050212;28;19924;-80
2021/12/29 09:47:59;;;;;;;;;;;;;;;;;;5069771;28;19916;-79
2021/12/29 09:50:24;;;;;;;;;;;;;;;;;;5048496;28;19913;-79
2021/12/29 09:52:50;;;;;;;;;;;;;;;;;;5075686;28;19951;-81
2021/12/29 09:55:17;;;;;;;;;;;;;;;;;;5052725;28;19913;-80
2021/12/29 09:57:45;;;;;;;;;;;;;;;;;;5048508;28;19921;-80
2021/12/29 10:00:12;;;;;;;;;;;;;;;;;;5052684;28;19919;-80
2021/12/29 10:02:37;;;;;;;;;;;;;;;;;;5051047;28;19941;-80
2021/12/29 10:05:03;;;;;;;;;;;;;;;;;;5047199;28;19919;-79
2021/12/29 10:07:29;;;;;;;;;;;;;;;;;;5059021;28;19905;-78
2021/12/29 10:09:54;;;;;;;;;;;;;;;;;;5063372;28;19970;-81
2021/12/29 10:12:21;;;;;;;;;;;;;;;;;;5079252;28;19913;-80
2021/12/29 10:14:57;;;;;;;;;;;;;;;;;;5058934;28;20008;-80
2021/12/29 10:17:28;;;;;;;;;;;;;;;;;;5076362;28;19913;-81
2021/12/29 10:20:07;;;;;;;;;;;;;;;;;;5049509;28;19970;-80
2021/12/29 10:22:33;;;;;;;;;;;;;;;;;;5046111;28;19912;-79
2021/12/29 10:25:13;;;;;;;;;;;;;;;;;;5046879;28;20007;-79
2021/12/29 10:27:41;;;;;;;;;;;;;;;;;;5048110;28;19916;-81
2021/12/29 10:30:20;;;;;;;;;;;;;;;;;;5066210;28;19921;-79
2021/12/29 10:32:45;;;;;;;;;;;;;;;;;;5045781;28;19920;-79
2021/12/29 10:35:19;;;;;;;;;;;;;;;;;;5045714;28;19920;-79
2021/12/29 10:37:47;;;;;;;;;;;;;;;;;;5051281;28;19912;-80
2021/12/29 10:40:23;;;;;;;;;;;;;;;;;;5044185;28;20307;-81
2021/12/29 10:43:01;;;;;;;;;;;;;;;;;;5046643;28;19921;-80
2021/12/29 10:45:37;;;;;;;;;;;;;;;;;;5048012;28;19920;-82
2021/12/29 10:48:17;;;;;;;;;;;;;;;;;;5053802;28;19913;-80
2021/12/29 10:50:56;;;;;;;;;;;;;;;;;;5046823;28;19927;-81
2021/12/29 10:53:22;;;;;;;;;;;;;;;;;;5047291;28;20532;-81
2021/12/29 10:55:47;;;;;;;;;;;;;;;;;;5072553;28;19917;-80
2021/12/29 10:58:17;;;;;;;;;;;;;;;;;;5046583;28;19944;-80
2021/12/29 11:00:44;;;;;;;;;;;;;;;;;;5047662;28;19920;-80
2021/12/29 11:03:13;;;;;;;;;;;;;;;;;;5048204;28;19920;-80
2021/12/29 11:05:40;;;;;;;;;;;;;;;;;;5049477;28;19940;-79
2021/12/29 11:08:06;;;;;;;;;;;;;;;;;;5047068;28;20337;-80
2021/12/29 11:10:32;;;;;;;;;;;;;;;;;;5045894;28;19961;-81
2021/12/29 11:12:57;;;;;;;;;;;;;;;;;;5047093;28;19916;-80
2021/12/29 11:15:30;;;;;;;;;;;;;;;;;;5067084;28;20391;-79
2021/12/29 11:17:59;;;;;;;;;;;;;;;;;;5043137;28;20292;-81
2021/12/29 11:20:28;;;;;;;;;;;;;;;;;;5050433;28;19913;-80
2021/12/29 11:23:13;;;;;;;;;;;;;;;;;;5049362;28;19916;-79
2021/12/29 11:25:40;;;;;;;;;;;;;;;;;;5046662;28;19920;-79
2021/12/29 11:28:06;;;;;;;;;;;;;;;;;;5045551;28;19913;-80
2021/12/29 11:30:32;;;;;;;;;;;;;;;;;;5066488;28;19959;-80
2021/12/29 11:33:07;;;;;;;;;;;;;;;;;;5049639;28;20214;-79
2021/12/29 11:35:36;;;;;;;;;;;;;;;;;;5049112;28;19912;-79
2021/12/29 11:38:04;;;;;;;;;;;;;;;;;;5046655;28;19916;-79
2021/12/29 11:40:31;;;;;;;;;;;;;;;;;;5050052;28;19981;-79
2021/12/29 11:42:56;;;;;;;;;;;;;;;;;;5048887;28;20257;-81
2021/12/29 11:45:22;;;;;;;;;;;;;;;;;;5070377;28;19920;-81
2021/12/29 11:47:48;;;;;;;;;;;;;;;;;;5048488;28;20183;-81
2021/12/29 11:50:34;;;;;;;;;;;;;;;;;;5047715;28;19939;-80
2021/12/29 11:53:18;;;;;;;;;;;;;;;;;;5074173;28;19939;-80
2021/12/29 11:55:45;;;;;;;;;;;;;;;;;;5050839;28;19912;-79
2021/12/29 11:58:16;;;;;;;;;;;;;;;;;;5048381;28;20013;-79
2021/12/29 12:00:44;;;;;;;;;;;;;;;;;;5049549;28;19974;-79
2021/12/29 12:03:11;;;;;;;;;;;;;;;;;;5073063;28;20249;-79
2021/12/29 12:05:38;;;;;;;;;;;;;;;;;;5052369;28;19931;-77
2021/12/29 12:08:08;;;;;;;;;;;;;;;;;;5054975;28;19939;-78
2021/12/29 12:10:35;;;;;;;;;;;;;;;;;;5074160;28;19963;-78
2021/12/29 12:13:04;;;;;;;;;;;;;;;;;;5053175;28;19919;-78
2021/12/29 12:15:30;;;;;;;;;;;;;;;;;;5057823;28;20238;-77
2021/12/29 12:17:56;;;;;;;;;;;;;;;;;;5049577;28;20000;-78
2021/12/29 12:20:23;;;;;;;;;;;;;;;;;;5047157;28;20003;-78
2021/12/29 12:22:49;;;;;;;;;;;;;;;;;;5051795;28;19912;-78
2021/12/29 12:25:19;;;;;;;;;;;;;;;;;;5048707;28;19912;-78
2021/12/29 12:27:45;;;;;;;;;;;;;;;;;;5050088;28;19972;-78
2021/12/29 12:30:13;;;;;;;;;;;;;;;;;;5050879;28;20479;-79
2021/12/29 12:32:47;;;;;;;;;;;;;;;;;;5052386;28;19912;-79
2021/12/29 12:35:28;;;;;;;;;;;;;;;;;;5049061;28;19961;-79
2021/12/29 12:37:56;;;;;;;;;;;;;;;;;;5050100;28;20000;-80
2021/12/29 12:40:23;;;;;;;;;;;;;;;;;;5055187;28;19923;-80
2021/12/29 12:43:06;;;;;;;;;;;;;;;;;;5050004;28;19940;-80
2021/12/29 12:45:33;;;;;;;;;;;;;;;;;;5046543;28;19943;-80
2021/12/29 12:48:09;;;;;;;;;;;;;;;;;;5049561;28;20150;-78
2021/12/29 12:50:35;;;;;;;;;;;;;;;;;;5051834;28;19920;-77
2021/12/29 12:53:01;;;;;;;;;;;;;;;;;;5080244;28;19921;-76
2021/12/29 12:55:30;;;;;;;;;;;;;;;;;;5046448;28;20246;-78
2021/12/29 12:58:05;;;;;;;;;;;;;;;;;;5050230;28;20391;-79
2021/12/29 13:00:32;;;;;;;;;;;;;;;;;;5053757;28;19920;-79
2021/12/29 13:02:59;;;;;;;;;;;;;;;;;;5052728;28;19919;-79
2021/12/29 13:05:32;;;;;;;;;;;;;;;;;;5051183;28;19943;-79
2021/12/29 13:08:01;;;;;;;;;;;;;;;;;;5049939;28;19971;-79
2021/12/29 13:10:28;;;;;;;;;;;;;;;;;;5053668;28;20019;-79
2021/12/29 13:12:58;;;;;;;;;;;;;;;;;;5050933;28;20350;-79
2021/12/29 13:15:24;;;;;;;;;;;;;;;;;;5068030;28;19939;-80
2021/12/29 13:17:50;;;;;;;;;;;;;;;;;;5053315;28;19920;-79
2021/12/29 13:20:18;;;;;;;;;;;;;;;;;;5051803;28;20382;-78
2021/12/29 13:22:44;;;;;;;;;;;;;;;;;;5051491;28;19913;-79
2021/12/29 13:25:09;;;;;;;;;;;;;;;;;;5054183;28;19951;-80
2021/12/29 13:27:35;;;;;;;;;;;;;;;;;;5055825;28;20391;-80
2021/12/29 13:30:02;;;;;;;;;;;;;;;;;;5051244;28;19921;-79
2021/12/29 13:32:30;;;;;;;;;;;;;;;;;;5052678;28;19911;-78
2021/12/29 13:35:01;;;;;;;;;;;;;;;;;;5052480;28;19923;-78
2021/12/29 13:37:27;;;;;;;;;;;;;;;;;;5076638;28;19921;-79
2021/12/29 13:39:53;;;;;;;;;;;;;;;;;;5047979;28;19931;-80
2021/12/29 13:42:18;;;;;;;;;;;;;;;;;;5051497;28;20330;-80
2021/12/29 13:44:43;;;;;;;;;;;;;;;;;;5052740;28;19912;-81
2021/12/29 13:47:09;;;;;;;;;;;;;;;;;;5047667;28;19924;-80
2021/12/29 13:49:34;;;;;;;;;;;;;;;;;;5049590;28;19931;-81
2021/12/29 13:52:00;;;;;;;;;;;;;;;;;;5055767;28;19913;-81
2021/12/29 13:54:27;;;;;;;;;;;;;;;;;;5047472;28;19932;-81
2021/12/29 13:56:53;;;;;;;;;;;;;;;;;;5047843;28;19989;-81
2021/12/29 13:59:27;;;;;;;;;;;;;;;;;;5077335;28;19913;-78
2021/12/29 14:01:58;;;;;;;;;;;;;;;;;;5054634;28;20308;-81
2021/12/29 14:04:24;;;;;;;;;;;;;;;;;;5049206;28;19913;-80
2021/12/29 14:07:00;;;;;;;;;;;;;;;;;;5049950;28;20478;-79
2021/12/29 14:09:33;;;;;;;;;;;;;;;;;;5051383;28;19994;-81
2021/12/29 14:12:15;;;;;;;;;;;;;;;;;;5053248;28;19913;-80
2021/12/29 14:14:43;;;;;;;;;;;;;;;;;;5046580;28;20364;-80
2021/12/29 14:17:17;;;;;;;;;;;;;;;;;;5049517;28;19943;-79
2021/12/29 14:19:45;;;;;;;;;;;;;;;;;;5051062;28;20361;-79
2021/12/29 14:22:40;;;;;;;;;;;;;;;;;;5054147;28;19912;-79
2021/12/29 14:25:11;;;;;;;;;;;;;;;;;;5036264;28;19919;-80
2021/12/29 14:27:46;;;;;;;;;;;;;;;;;;5049698;28;19999;-80
2021/12/29 14:30:15;;;;;;;;;;;;;;;;;;5052097;28;19920;-80
2021/12/29 14:32:51;;;;;;;;;;;;;;;;;;5049624;28;20418;-81
2021/12/29 14:35:16;;;;;;;;;;;;;;;;;;5047668;28;19913;-80
2021/12/29 14:37:41;;;;;;;;;;;;;;;;;;5049698;28;19924;-80
2021/12/29 14:40:16;;;;;;;;;;;;;;;;;;5073629;28;20353;-83
2021/12/29 14:42:42;;;;;;;;;;;;;;;;;;5047141;28;19946;-82
2021/12/29 14:45:08;;;;;;;;;;;;;;;;;;5050687;28;19923;-80
2021/12/29 14:47:36;;;;;;;;;;;;;;;;;;5074776;28;19913;-79
2021/12/29 14:50:09;;;;;;;;;;;;;;;;;;5050728;28;19925;-80
2021/12/29 14:52:36;;;;;;;;;;;;;;;;;;5052245;28;19990;-84
2021/12/29 14:55:04;;;;;;;;;;;;;;;;;;5048487;28;19917;-80
2021/12/29 14:57:30;;;;;;;;;;;;;;;;;;5050342;28;19913;-84
2021/12/29 15:00:05;;;;;;;;;;;;;;;;;;5048772;28;19913;-84
2021/12/29 15:02:30;;;;;;;;;;;;;;;;;;5047223;28;19975;-86
2021/12/29 15:04:59;;;;;;;;;;;;;;;;;;5045608;28;19943;-83
2021/12/29 15:07:28;;;;;;;;;;;;;;;;;;5049999;28;20051;-81
2021/12/29 15:09:59;;;;;;;;;;;;;;;;;;5049815;28;20346;-81
2021/12/29 15:12:28;;;;;;;;;;;;;;;;;;5052080;28;19976;-81
2021/12/29 15:14:54;;;;;;;;;;;;;;;;;;5081314;28;19943;-79
2021/12/29 15:17:23;;;;;;;;;;;;;;;;;;5083993;28;19965;-78
2021/12/29 15:19:48;;;;;;;;;;;;;;;;;;5079560;28;19916;-78
2021/12/29 15:22:16;;;;;;;;;;;;;;;;;;5054597;28;19963;-78
2021/12/29 15:24:41;;;;;;;;;;;;;;;;;;5052119;28;19917;-77
2021/12/29 15:27:08;;;;;;;;;;;;;;;;;;5050535;28;20281;-79
2021/12/29 15:29:33;;;;;;;;;;;;;;;;;;5047839;28;19996;-78
2021/12/29 15:32:00;;;;;;;;;;;;;;;;;;5049385;28;20003;-80
2021/12/29 15:34:26;;;;;;;;;;;;;;;;;;5043957;28;19952;-80
2021/12/29 15:36:53;;;;;;;;;;;;;;;;;;5074866;28;20280;-79
2021/12/29 15:39:20;;;;;;;;;;;;;;;;;;5051088;28;20019;-80
2021/12/29 15:41:45;;;;;;;;;;;;;;;;;;5049591;28;21592;-79
2021/12/29 15:44:13;;;;;;;;;;;;;;;;;;5071128;28;19920;-80
2021/12/29 15:46:38;;;;;;;;;;;;;;;;;;5054286;28;20432;-81
2021/12/29 15:49:03;;;;;;;;;;;;;;;;;;5048582;28;19971;-80
2021/12/29 15:51:34;;;;;;;;;;;;;;;;;;5049105;28;19990;-80
2021/12/29 15:53:59;;;;;;;;;;;;;;;;;;5046542;28;20326;-80
2021/12/29 15:56:26;;;;;;;;;;;;;;;;;;5048182;28;19908;-79
2021/12/29 15:58:52;;;;;;;;;;;;;;;;;;5047388;28;19975;-79
2021/12/29 16:01:18;;;;;;;;;;;;;;;;;;5047838;28;20404;-78
2021/12/29 16:03:43;;;;;;;;;;;;;;;;;;5046765;28;19913;-81
2021/12/29 16:06:10;;;;;;;;;;;;;;;;;;5049955;28;20000;-80
2021/12/29 16:08:35;;;;;;;;;;;;;;;;;;5044552;28;19920;-79
2021/12/29 16:11:01;;;;;;;;;;;;;;;;;;5047886;28;19917;-79
2021/12/29 16:13:26;;;;;;;;;;;;;;;;;;5048877;28;19917;-79
2021/12/29 16:15:51;;;;;;;;;;;;;;;;;;5049698;28;20371;-80
2021/12/29 16:18:17;;;;;;;;;;;;;;;;;;5052368;28;19916;-80
2021/12/29 16:20:44;;;;;;;;;;;;;;;;;;5066297;28;19921;-80
2021/12/29 16:23:09;;;;;;;;;;;;;;;;;;5050722;28;19912;-80
2021/12/29 16:25:38;;;;;;;;;;;;;;;;;;5070098;28;20003;-80
2021/12/29 16:28:03;;;;;;;;;;;;;;;;;;5050703;28;19913;-80
2021/12/29 16:30:29;;;;;;;;;;;;;;;;;;5052653;28;20269;-79
2021/12/29 16:32:55;;;;;;;;;;;;;;;;;;5046351;28;19916;-79
2021/12/29 16:35:21;;;;;;;;;;;;;;;;;;5046947;28;19958;-79
2021/12/29 16:37:47;;;;;;;;;;;;;;;;;;5076766;28;19917;-80
2021/12/29 16:40:13;;;;;;;;;;;;;;;;;;5053249;28;20815;-81
2021/12/29 16:42:39;;;;;;;;;;;;;;;;;;5050042;28;20063;-80
2021/12/29 16:45:06;;;;;;;;;;;;;;;;;;5057023;28;20410;-80
2021/12/29 16:47:31;;;;;;;;;;;;;;;;;;5053588;28;20311;-81
2021/12/29 16:49:57;;;;;;;;;;;;;;;;;;5051835;28;19924;-81